Time;durP1;ratioP1;P1;durP2;ratioP2;P2;SDS_P1;SDS_P2;PMS_P1;PMS_P2;Temp;Humidity;BMP_temperature;BMP_pressure;BME280_temperature;BME280_humidity;BME280_pressure;Samples;Min_cycle;Max_cycle;Signal;HPM_P1;HPM_P2
2023/03/23 00:01:13;;;;;;;6.85;5.35;;;11.10;99.90;;;;;;5086400;28;20048;-78
2023/03/23 00:03:40;;;;;;;7.13;5.22;;;11.10;99.90;;;;;;5087740;28;20040;-76
2023/03/23 00:06:07;;;;;;;7.45;5.75;;;11.10;99.90;;;;;;5083272;28;20060;-76
2023/03/23 00:08:44;;;;;;;7.97;5.07;;;11.10;99.90;;;;;;5075242;28;20079;-76
2023/03/23 00:11:14;;;;;;;6.45;5.57;;;11.10;99.90;;;;;;5079935;28;20144;-76
2023/03/23 00:13:40;;;;;;;5.85;5.20;;;11.10;99.90;;;;;;5087538;28;20151;-76
2023/03/23 00:16:17;;;;;;;7.07;5.18;;;11.10;99.90;;;;;;5090544;28;20040;-75
2023/03/23 00:18:49;;;;;;;8.82;5.85;;;11.10;99.90;;;;;;5067147;28;20052;-77
2023/03/23 00:21:15;;;;;;;8.38;6.25;;;11.10;99.90;;;;;;5084589;28;20120;-75
2023/03/23 00:23:44;;;;;;;7.88;5.30;;;11.10;99.90;;;;;;5079595;28;20143;-77
2023/03/23 00:26:11;;;;;;;7.50;4.78;;;11.10;99.90;;;;;;5083708;28;20056;-77
2023/03/23 00:28:38;;;;;;;7.00;4.70;;;11.10;99.90;;;;;;5084642;28;20127;-77
2023/03/23 00:31:06;;;;;;;7.35;5.57;;;11.10;99.90;;;;;;5058326;28;20371;-77
2023/03/23 00:33:37;;;;;;;7.28;5.13;;;11.10;99.90;;;;;;5071731;28;20131;-76
2023/03/23 00:36:14;;;;;;;5.50;4.57;;;11.10;99.90;;;;;;5078329;28;20049;-77
2023/03/23 00:38:40;;;;;;;;;;;11.10;99.90;;;;;;5086880;28;20492;-76
2023/03/23 00:41:06;;;;;;;7.93;5.20;;;11.10;99.90;;;;;;5046414;28;19924;-76
2023/03/23 00:43:35;;;;;;;6.90;5.20;;;11.10;99.90;;;;;;5080040;28;20082;-77
2023/03/23 00:46:08;;;;;;;9.27;4.55;;;11.10;99.90;;;;;;5063160;28;20060;-76
2023/03/23 00:48:35;;;;;;;6.25;4.72;;;11.10;99.90;;;;;;5078540;28;20350;-78
2023/03/23 00:51:05;;;;;;;6.55;5.10;;;11.10;99.90;;;;;;5084956;28;20055;-76
2023/03/23 00:53:32;;;;;;;6.10;4.43;;;11.10;99.90;;;;;;5083515;28;20056;-75
2023/03/23 00:55:57;;;;;;;5.93;4.35;;;11.10;99.90;;;;;;5064181;28;20697;-77
2023/03/23 00:58:23;;;;;;;6.60;4.47;;;11.10;99.90;;;;;;5075958;28;20045;-77
2023/03/23 01:00:49;;;;;;;6.93;4.53;;;11.10;99.90;;;;;;5085116;28;20063;-77
2023/03/23 01:03:18;;;;;;;6.07;4.45;;;11.10;99.90;;;;;;5056436;28;20047;-76
2023/03/23 01:05:46;;;;;;;5.95;3.80;;;11.10;99.90;;;;;;5068313;28;20600;-77
2023/03/23 01:08:13;;;;;;;5.47;3.50;;;11.20;99.90;;;;;;5078476;28;20135;-76
2023/03/23 01:10:40;;;;;;;5.05;3.28;;;11.20;99.90;;;;;;5080795;28;20138;-76
2023/03/23 01:13:06;;;;;;;4.80;3.35;;;11.20;99.90;;;;;;5049486;28;20079;-77
2023/03/23 01:15:33;;;;;;;5.13;2.50;;;11.20;99.90;;;;;;5082087;28;20036;-77
2023/03/23 01:17:58;;;;;;;4.38;2.90;;;11.20;99.90;;;;;;5081436;28;20059;-78
2023/03/23 01:20:26;;;;;;;4.25;2.58;;;11.20;99.90;;;;;;5089482;28;20056;-76
2023/03/23 01:22:52;;;;;;;4.47;3.15;;;11.20;99.90;;;;;;5083490;28;20055;-79
2023/03/23 01:25:19;;;;;;;5.22;3.13;;;11.30;99.90;;;;;;5069336;28;20163;-75
2023/03/23 01:27:44;;;;;;;3.20;2.58;;;11.20;99.90;;;;;;5075482;28;20447;-76
2023/03/23 01:30:12;;;;;;;4.93;2.80;;;11.20;99.90;;;;;;5063517;28;20047;-78
2023/03/23 01:32:38;;;;;;;4.57;3.13;;;11.20;99.90;;;;;;5079141;28;20044;-75
2023/03/23 01:35:04;;;;;;;4.88;3.10;;;11.20;99.90;;;;;;5087649;28;20055;-76
2023/03/23 01:37:31;;;;;;;5.40;3.63;;;11.20;99.90;;;;;;5087558;28;20395;-78
2023/03/23 01:39:57;;;;;;;4.68;3.30;;;11.20;99.90;;;;;;5091412;28;20036;-76
2023/03/23 01:42:31;;;;;;;4.28;3.33;;;11.20;99.90;;;;;;5068519;28;20044;-77
2023/03/23 01:45:26;;;;;;;5.45;3.60;;;11.20;99.90;;;;;;5091714;28;20127;-75
2023/03/23 01:48:01;;;;;;;5.63;3.58;;;11.10;99.90;;;;;;5080281;28;20083;-76
2023/03/23 01:50:29;;;;;;;4.28;3.25;;;11.20;99.90;;;;;;5059850;28;20389;-78
2023/03/23 01:52:59;;;;;;;4.30;2.83;;;11.20;99.90;;;;;;5077425;28;20123;-77
2023/03/23 01:55:27;;;;;;;5.63;3.00;;;11.20;99.90;;;;;;5076392;28;20051;-74
2023/03/23 01:57:55;;;;;;;5.93;3.05;;;11.20;99.90;;;;;;5084944;28;20080;-77
2023/03/23 02:00:21;;;;;;;4.47;3.30;;;11.20;99.90;;;;;;5080403;28;20043;-78
2023/03/23 02:02:49;;;;;;;4.95;3.42;;;11.20;99.90;;;;;;5086247;28;20047;-76
2023/03/23 02:05:33;;;;;;;5.18;2.72;;;11.20;99.90;;;;;;5063336;28;20048;-75
2023/03/23 02:08:02;;;;;;;5.25;2.90;;;11.20;99.90;;;;;;5062941;28;20053;-77
2023/03/23 02:10:33;;;;;;;4.38;2.85;;;11.20;99.90;;;;;;5086838;28;20147;-76
2023/03/23 02:13:01;;;;;;;5.60;3.08;;;11.20;99.90;;;;;;5083984;28;20129;-77
2023/03/23 02:15:52;;;;;;;5.63;2.80;;;11.30;99.90;;;;;;5082979;28;20511;-75
2023/03/23 02:18:58;;;;;;;3.70;2.55;;;11.20;99.90;;;;;;5047240;28;20056;-76
2023/03/23 02:22:01;;;;;;;5.75;3.08;;;11.30;99.90;;;;;;5033076;28;20051;-76
2023/03/23 02:24:46;;;;;;;3.67;2.35;;;11.30;99.90;;;;;;5084694;28;20047;-76
2023/03/23 02:27:18;;;;;;;5.25;2.42;;;11.40;99.90;;;;;;5069260;28;20155;-76
2023/03/23 02:29:46;;;;;;;3.38;2.40;;;11.30;99.90;;;;;;5079628;28;20048;-75
2023/03/23 02:32:24;;;;;;;5.30;2.55;;;11.30;99.90;;;;;;5054690;28;20048;-76
2023/03/23 02:34:55;;;;;;;5.28;2.67;;;11.30;99.90;;;;;;5070772;28;20059;-76
2023/03/23 02:37:31;;;;;;;5.30;2.72;;;11.30;99.90;;;;;;5070799;28;20041;-78
2023/03/23 02:40:11;;;;;;;5.07;2.88;;;11.30;99.90;;;;;;5092213;28;20052;-77
2023/03/23 02:42:41;;;;;;;3.42;2.33;;;11.20;99.90;;;;;;5095210;28;20079;-77
2023/03/23 02:45:10;;;;;;;4.30;2.50;;;11.20;99.90;;;;;;5058574;28;20048;-76
2023/03/23 02:47:38;;;;;;;3.80;2.33;;;11.20;99.90;;;;;;5093951;28;20044;-76
2023/03/23 02:50:07;;;;;;;4.32;2.60;;;11.20;99.90;;;;;;5088255;28;20036;-76
2023/03/23 02:52:36;;;;;;;3.95;2.40;;;11.20;99.90;;;;;;5076431;28;20396;-75
2023/03/23 02:55:02;;;;;;;7.00;2.72;;;11.20;99.90;;;;;;5090212;28;20489;-77
2023/03/23 02:57:29;;;;;;;4.60;3.10;;;11.20;99.90;;;;;;5076198;28;20036;-75
2023/03/23 02:59:55;;;;;;;3.55;2.42;;;11.20;99.90;;;;;;5097529;28;20051;-77
2023/03/23 03:02:28;;;;;;;6.50;2.80;;;11.30;99.90;;;;;;5085643;28;20046;-76
2023/03/23 03:05:16;;;;;;;4.72;2.47;;;11.30;99.90;;;;;;5097662;28;20056;-75
2023/03/23 03:07:49;;;;;;;3.63;2.30;;;11.30;99.90;;;;;;5086142;28;20447;-77
2023/03/23 03:10:26;;;;;;;3.67;2.50;;;11.20;99.90;;;;;;5060329;28;20062;-75
2023/03/23 03:13:47;;;;;;;5.25;2.50;;;11.30;99.90;;;;;;5089981;28;20050;-76
2023/03/23 03:16:20;;;;;;;4.10;2.47;;;11.20;99.90;;;;;;4995278;28;20154;-76
2023/03/23 03:18:58;;;;;;;3.22;2.20;;;11.30;99.90;;;;;;4977883;28;20535;-76
2023/03/23 03:21:27;;;;;;;4.60;2.75;;;11.30;99.90;;;;;;5054706;28;20060;-77
2023/03/23 03:23:56;;;;;;;4.07;2.80;;;11.30;99.90;;;;;;5089923;28;20047;-78
2023/03/23 03:26:26;;;;;;;5.80;3.03;;;11.30;99.90;;;;;;5068212;28;20059;-77
2023/03/23 03:28:53;;;;;;;2.95;2.10;;;11.30;99.90;;;;;;5087488;28;20145;-78
2023/03/23 03:31:22;;;;;;;5.07;2.55;;;11.30;99.90;;;;;;5091736;28;20051;-79
2023/03/23 03:33:48;;;;;;;4.57;2.20;;;11.30;99.90;;;;;;5097314;28;20048;-78
2023/03/23 03:36:21;;;;;;;4.25;2.28;;;11.30;99.90;;;;;;5093039;28;20556;-78
2023/03/23 03:38:50;;;;;;;4.32;2.30;;;11.30;99.90;;;;;;5077179;28;20090;-78
2023/03/23 03:41:17;;;;;;;4.03;2.65;;;11.30;99.90;;;;;;5071749;28;20457;-77
2023/03/23 03:43:43;;;;;;;3.63;2.28;;;11.40;99.90;;;;;;5072093;28;20056;-79
2023/03/23 03:46:08;;;;;;;3.22;2.10;;;11.40;99.90;;;;;;5086172;28;20086;-78
2023/03/23 03:48:34;;;;;;;4.13;2.40;;;11.50;99.90;;;;;;5088806;28;20548;-78
2023/03/23 03:51:01;;;;;;;4.38;2.30;;;11.50;99.90;;;;;;5088872;28;20496;-78
2023/03/23 03:53:27;;;;;;;4.05;2.22;;;11.50;99.90;;;;;;5045726;28;20068;-77
2023/03/23 03:55:56;;;;;;;2.65;1.92;;;11.50;99.90;;;;;;5084849;28;20132;-77
2023/03/23 03:58:22;;;;;;;5.18;2.60;;;11.60;99.90;;;;;;5065377;28;20093;-77
2023/03/23 04:00:49;;;;;;;3.53;2.58;;;11.60;99.90;;;;;;5092778;28;20043;-78
2023/03/23 04:03:16;;;;;;;3.42;2.08;;;11.60;99.90;;;;;;5068346;28;20551;-76
2023/03/23 04:05:44;;;;;;;3.22;2.33;;;11.60;99.90;;;;;;5085143;28;20045;-78
2023/03/23 04:08:11;;;;;;;3.10;1.85;;;11.60;99.90;;;;;;5080311;28;20439;-79
2023/03/23 04:10:37;;;;;;;5.78;2.80;;;11.60;99.90;;;;;;5089023;28;20041;-77
2023/03/23 04:13:04;;;;;;;4.05;2.60;;;11.70;99.90;;;;;;5086163;28;20549;-77
2023/03/23 04:15:30;;;;;;;3.65;2.50;;;11.70;99.90;;;;;;5085954;28;20044;-79
2023/03/23 04:17:56;;;;;;;4.63;3.35;;;11.70;99.90;;;;;;5082759;28;20108;-79
2023/03/23 04:20:23;;;;;;;4.75;3.05;;;11.70;99.90;;;;;;5082346;28;20056;-77
2023/03/23 04:22:49;;;;;;;4.30;2.72;;;11.60;99.90;;;;;;5072153;28;20055;-76
2023/03/23 04:25:17;;;;;;;3.90;2.50;;;11.60;99.90;;;;;;5084365;28;20040;-78
2023/03/23 04:27:44;;;;;;;3.70;2.90;;;11.50;99.90;;;;;;5084142;28;20397;-77
2023/03/23 04:30:13;;;;;;;3.88;2.60;;;11.50;99.90;;;;;;5082172;28;20048;-77
2023/03/23 04:32:43;;;;;;;4.88;3.55;;;11.50;99.90;;;;;;5064820;28;20051;-79
2023/03/23 04:35:13;;;;;;;3.55;2.80;;;11.50;99.90;;;;;;5084256;28;20048;-78
2023/03/23 04:37:40;;;;;;;5.05;3.10;;;11.60;99.90;;;;;;5079622;28;20389;-77
2023/03/23 04:40:11;;;;;;;3.67;2.88;;;11.60;99.90;;;;;;5090908;28;20052;-77
2023/03/23 04:42:38;;;;;;;4.15;2.78;;;11.60;99.90;;;;;;5078845;28;20052;-77
2023/03/23 04:45:07;;;;;;;4.90;3.05;;;11.60;99.90;;;;;;5074560;28;20362;-77
2023/03/23 04:47:39;;;;;;;4.20;2.72;;;11.60;99.90;;;;;;5086711;28;20136;-78
2023/03/23 04:50:11;;;;;;;4.03;2.50;;;11.60;99.90;;;;;;5062795;28;20397;-77
2023/03/23 04:52:40;;;;;;;3.50;2.60;;;11.60;99.90;;;;;;5075520;28;20060;-77
2023/03/23 04:55:09;;;;;;;4.07;2.92;;;11.60;99.90;;;;;;5065284;28;20052;-79
2023/03/23 04:57:35;;;;;;;4.13;2.70;;;11.60;99.90;;;;;;5073772;28;20048;-77
2023/03/23 05:00:08;;;;;;;3.70;2.75;;;11.60;99.90;;;;;;5086077;28;20042;-79
2023/03/23 05:02:35;;;;;;;5.70;2.75;;;11.70;99.90;;;;;;5078487;28;20093;-78
2023/03/23 05:05:01;;;;;;;4.80;2.88;;;11.60;99.90;;;;;;5084518;28;20126;-79
2023/03/23 05:07:26;;;;;;;4.93;2.70;;;11.70;99.90;;;;;;5082545;28;20189;-79
2023/03/23 05:09:53;;;;;;;6.03;2.88;;;11.70;99.90;;;;;;5070949;28;20447;-77
2023/03/23 05:12:19;;;;;;;6.18;2.50;;;11.70;99.90;;;;;;5081468;28;20128;-77
2023/03/23 05:14:45;;;;;;;4.95;3.00;;;11.70;99.90;;;;;;5079420;28;20121;-77
2023/03/23 05:17:12;;;;;;;4.40;2.78;;;11.70;99.90;;;;;;5068306;28;20048;-78
2023/03/23 05:19:38;;;;;;;3.83;3.00;;;11.50;99.90;;;;;;5086257;28;20044;-81
2023/03/23 05:22:04;;;;;;;4.03;2.65;;;11.40;99.90;;;;;;5071974;28;20115;-77
2023/03/23 05:24:32;;;;;;;5.15;3.00;;;11.40;99.90;;;;;;5085772;28;20127;-78
2023/03/23 05:27:02;;;;;;;6.15;2.70;;;11.40;99.90;;;;;;5054283;28;20060;-77
2023/03/23 05:29:30;;;;;;;2.22;1.10;;;11.30;99.90;;;;;;5082525;28;20044;-76
2023/03/23 05:31:59;;;;;;;3.50;1.60;;;10.80;99.90;;;;;;5080205;28;20051;-75
2023/03/23 05:34:26;;;;;;;7.15;1.88;;;10.50;99.90;;;;;;5084420;28;20044;-76
2023/03/23 05:36:53;;;;;;;5.20;1.85;;;10.10;99.90;;;;;;5081680;28;20419;-76
2023/03/23 05:39:19;;;;;;;3.92;1.42;;;9.70;99.90;;;;;;5060295;28;20084;-75
2023/03/23 05:41:46;;;;;;;3.25;1.42;;;9.40;99.90;;;;;;5069524;28;20052;-76
2023/03/23 05:44:13;;;;;;;4.68;1.50;;;9.30;99.90;;;;;;5091806;28;20471;-74
2023/03/23 05:46:39;;;;;;;5.90;1.77;;;9.30;99.90;;;;;;5091395;28;20040;-75
2023/03/23 05:49:05;;;;;;;6.88;2.20;;;9.20;99.90;;;;;;5088939;28;20055;-75
2023/03/23 05:51:31;;;;;;;3.92;2.13;;;9.30;99.90;;;;;;5068361;28;20044;-74
2023/03/23 05:53:57;;;;;;;5.28;2.17;;;9.40;99.90;;;;;;5080974;28;20080;-75
2023/03/23 05:56:23;;;;;;;4.65;2.55;;;9.40;99.90;;;;;;5076665;28;20159;-74
2023/03/23 05:58:49;;;;;;;3.70;2.17;;;9.50;99.90;;;;;;5068047;28;20537;-74
2023/03/23 06:01:15;;;;;;;5.40;3.42;;;9.50;99.90;;;;;;5083166;28;20122;-74
2023/03/23 06:03:42;;;;;;;6.70;3.80;;;9.60;99.90;;;;;;5065917;28;20094;-79
2023/03/23 06:06:11;;;;;;;6.65;3.20;;;9.70;99.90;;;;;;5084513;28;20048;-74
2023/03/23 06:08:37;;;;;;;5.82;3.30;;;9.90;99.90;;;;;;5063200;28;20048;-75
2023/03/23 06:11:04;;;;;;;4.47;2.70;;;9.90;99.90;;;;;;5071135;28;20055;-75
2023/03/23 06:13:30;;;;;;;5.43;2.60;;;9.90;99.90;;;;;;5087302;28;20395;-75
2023/03/23 06:15:58;;;;;;;5.20;2.53;;;9.90;99.90;;;;;;5081278;28;20036;-74
2023/03/23 06:18:24;;;;;;;6.53;2.15;;;9.90;99.90;;;;;;5069524;28;20571;-76
2023/03/23 06:20:50;;;;;;;3.13;1.80;;;9.80;99.90;;;;;;5091367;28;20052;-75
2023/03/23 06:23:17;;;;;;;3.42;1.70;;;9.90;99.90;;;;;;5086855;28;20136;-76
2023/03/23 06:25:43;;;;;;;4.80;1.70;;;9.80;99.90;;;;;;5084293;28;20543;-74
2023/03/23 06:28:10;;;;;;;2.80;1.70;;;9.80;99.90;;;;;;5079682;28;20066;-79
2023/03/23 06:30:37;;;;;;;5.15;1.70;;;9.80;99.90;;;;;;5056918;28;20508;-75
2023/03/23 06:33:05;;;;;;;3.55;1.80;;;9.70;99.90;;;;;;5072768;28;20044;-77
2023/03/23 06:35:31;;;;;;;5.63;2.00;;;9.70;99.90;;;;;;5059691;28;20055;-74
2023/03/23 06:38:01;;;;;;;4.03;2.20;;;9.70;99.90;;;;;;5087403;28;20404;-74
2023/03/23 06:40:28;;;;;;;5.47;2.10;;;9.80;99.90;;;;;;5078479;28;20127;-74
2023/03/23 06:42:56;;;;;;;4.63;1.92;;;9.70;99.90;;;;;;5087252;28;20052;-74
2023/03/23 06:45:22;;;;;;;3.13;1.33;;;9.80;99.90;;;;;;5072834;28;20041;-73
2023/03/23 06:47:50;;;;;;;3.15;1.70;;;9.80;99.90;;;;;;5064475;28;20097;-75
2023/03/23 06:50:16;;;;;;;5.13;1.80;;;9.80;99.90;;;;;;5073466;28;20094;-74
2023/03/23 06:52:47;;;;;;;6.55;1.70;;;9.80;99.90;;;;;;5091213;28;20118;-75
2023/03/23 06:55:13;;;;;;;5.57;2.30;;;9.90;99.90;;;;;;5089091;28;20059;-76
2023/03/23 06:57:40;;;;;;;4.28;2.03;;;9.90;99.90;;;;;;5072311;28;20049;-74
2023/03/23 07:00:09;;;;;;;4.97;1.77;;;10.00;99.90;;;;;;5090571;28;20044;-74
2023/03/23 07:02:35;;;;;;;4.78;1.90;;;10.00;99.90;;;;;;5056469;28;20052;-78
2023/03/23 07:05:03;;;;;;;2.92;1.58;;;10.00;99.90;;;;;;5085840;28;20059;-75
2023/03/23 07:07:30;;;;;;;3.63;2.05;;;10.10;99.90;;;;;;5080279;28;20052;-74
2023/03/23 07:09:56;;;;;;;4.88;1.65;;;10.10;99.90;;;;;;5080023;28;20561;-76
2023/03/23 07:12:22;;;;;;;3.88;1.85;;;10.20;99.90;;;;;;5072548;28;20074;-75
2023/03/23 07:14:48;;;;;;;4.63;2.05;;;10.20;99.90;;;;;;5075472;28;20091;-71
2023/03/23 07:17:13;;;;;;;8.73;2.35;;;10.20;99.90;;;;;;5073671;28;20481;-72
2023/03/23 07:19:40;;;;;;;7.63;2.50;;;10.20;99.90;;;;;;5088733;28;20048;-71
2023/03/23 07:22:07;;;;;;;5.90;2.08;;;10.30;99.90;;;;;;5071672;28;20507;-71
2023/03/23 07:24:33;;;;;;;6.60;2.58;;;10.30;99.90;;;;;;5080093;28;20047;-71
2023/03/23 07:26:59;;;;;;;4.72;2.08;;;10.40;99.90;;;;;;5081309;28;20477;-72
2023/03/23 07:29:25;;;;;;;7.32;2.35;;;10.40;99.90;;;;;;5063929;28;20051;-71
2023/03/23 07:31:52;;;;;;;6.07;2.80;;;10.40;99.90;;;;;;5087846;28;20059;-71
2023/03/23 07:34:18;;;;;;;5.88;2.45;;;10.50;99.90;;;;;;5042830;28;20051;-71
2023/03/23 07:36:45;;;;;;;7.97;2.78;;;10.50;99.90;;;;;;5058323;28;20040;-72
2023/03/23 07:39:11;;;;;;;5.70;2.08;;;10.50;99.90;;;;;;5058809;28;20092;-71
2023/03/23 07:41:38;;;;;;;7.05;2.45;;;10.60;99.90;;;;;;5092336;28;20051;-73
2023/03/23 07:44:05;;;;;;;6.88;2.50;;;10.60;99.90;;;;;;5075004;28;20086;-71
2023/03/23 07:46:31;;;;;;;4.95;2.30;;;10.60;99.90;;;;;;5059492;28;20056;-71
2023/03/23 07:48:57;;;;;;;6.10;2.17;;;10.70;99.90;;;;;;5084823;28;20058;-71
2023/03/23 07:51:24;;;;;;;4.10;2.35;;;10.80;99.90;;;;;;5077056;28;20400;-71
2023/03/23 07:53:51;;;;;;;6.20;1.80;;;10.90;99.90;;;;;;5077715;28;20055;-71
2023/03/23 07:56:19;;;;;;;4.40;2.50;;;11.00;99.90;;;;;;5078066;28;20173;-71
2023/03/23 07:58:48;;;;;;;5.45;2.17;;;11.10;99.90;;;;;;5085873;28;20059;-71
2023/03/23 08:01:14;;;;;;;6.18;2.33;;;11.10;99.90;;;;;;5089655;28;20044;-71
2023/03/23 08:03:40;;;;;;;5.93;2.00;;;11.10;99.90;;;;;;5087359;28;20070;-73
2023/03/23 08:06:06;;;;;;;6.68;2.00;;;11.20;99.90;;;;;;5083227;28;20139;-72
2023/03/23 08:08:32;;;;;;;5.05;2.15;;;11.20;99.90;;;;;;5081775;28;20473;-75
2023/03/23 08:10:58;;;;;;;5.68;2.25;;;11.30;99.90;;;;;;5076915;28;20393;-77
2023/03/23 08:13:24;;;;;;;7.85;2.45;;;11.30;99.90;;;;;;5063788;28;20393;-77
2023/03/23 08:15:51;;;;;;;6.30;2.03;;;11.30;99.90;;;;;;5080553;28;20047;-75
2023/03/23 08:18:17;;;;;;;7.97;2.10;;;11.40;99.90;;;;;;5083738;28;20032;-73
2023/03/23 08:20:44;;;;;;;7.15;1.90;;;11.50;99.90;;;;;;5064578;28;20899;-77
2023/03/23 08:23:10;;;;;;;5.10;2.25;;;11.50;99.90;;;;;;5069891;28;20262;-78
2023/03/23 08:25:37;;;;;;;8.18;2.47;;;11.50;99.90;;;;;;5080119;28;20119;-79
2023/03/23 08:28:03;;;;;;;7.30;2.63;;;11.50;99.90;;;;;;5092414;28;20052;-77
2023/03/23 08:30:32;;;;;;;7.38;2.78;;;11.50;99.90;;;;;;5073741;28;20098;-79
2023/03/23 08:33:00;;;;;;;8.48;2.95;;;11.50;99.90;;;;;;5091035;28;20050;-77
2023/03/23 08:35:26;;;;;;;8.45;2.67;;;11.60;99.90;;;;;;5085075;28;20043;-83
2023/03/23 08:37:52;;;;;;;6.97;2.38;;;11.60;99.90;;;;;;5090066;28;20074;-77
2023/03/23 08:40:20;;;;;;;8.18;2.88;;;11.60;99.90;;;;;;5091109;28;20156;-76
2023/03/23 08:42:47;;;;;;;6.80;2.42;;;11.60;99.90;;;;;;5092346;28;20055;-77
2023/03/23 08:45:17;;;;;;;7.45;2.70;;;11.60;99.90;;;;;;5091763;28;20036;-78
2023/03/23 08:47:44;;;;;;;8.88;3.53;;;11.60;99.90;;;;;;5090536;28;20492;-77
2023/03/23 08:50:13;;;;;;;8.48;2.78;;;11.60;99.90;;;;;;5091062;28;20089;-78
2023/03/23 08:52:39;;;;;;;7.18;2.63;;;11.60;99.90;;;;;;5090784;28;20042;-77
2023/03/23 08:55:08;;;;;;;6.60;2.80;;;11.50;99.90;;;;;;5092064;28;20048;-79
2023/03/23 08:57:35;;;;;;;6.43;2.60;;;11.50;99.90;;;;;;5090878;28;20040;-76
2023/03/23 09:00:13;;;;;;;7.97;2.75;;;11.50;99.90;;;;;;5092311;28;20050;-78
2023/03/23 09:02:39;;;;;;;5.35;2.50;;;11.50;99.90;;;;;;5091797;28;20453;-77
2023/03/23 09:05:05;;;;;;;5.32;2.70;;;11.50;99.90;;;;;;5084163;28;20075;-77
2023/03/23 09:07:30;;;;;;;8.82;2.67;;;11.50;99.90;;;;;;5091199;28;20211;-76
2023/03/23 09:09:56;;;;;;;6.38;2.90;;;11.60;99.90;;;;;;5079621;28;20056;-77
2023/03/23 09:12:23;;;;;;;6.93;2.63;;;11.60;99.90;;;;;;5082120;28;20047;-77
2023/03/23 09:14:48;;;;;;;6.95;3.03;;;11.60;99.90;;;;;;5092008;28;20048;-78
2023/03/23 09:17:14;;;;;;;4.95;2.70;;;11.70;99.90;;;;;;5077873;28;20063;-78
2023/03/23 09:19:41;;;;;;;5.10;2.30;;;11.70;99.90;;;;;;5077258;28;20512;-76
2023/03/23 09:22:07;;;;;;;7.03;3.00;;;11.70;99.90;;;;;;5084275;28;20056;-77
2023/03/23 09:24:34;;;;;;;5.97;2.85;;;11.70;99.90;;;;;;5090559;28;20098;-77
2023/03/23 09:27:00;;;;;;;6.53;3.00;;;11.70;99.90;;;;;;5091898;28;20052;-77
2023/03/23 09:29:26;;;;;;;6.97;3.10;;;11.80;99.90;;;;;;5091468;28;20047;-79
2023/03/23 09:31:53;;;;;;;6.38;3.10;;;11.70;99.90;;;;;;5086543;28;20898;-77
2023/03/23 09:34:20;;;;;;;5.40;2.80;;;11.80;99.90;;;;;;5091643;28;20488;-77
2023/03/23 09:36:46;;;;;;;6.15;3.00;;;11.70;99.90;;;;;;5090424;28;20083;-77
2023/03/23 09:39:12;;;;;;;9.38;3.20;;;11.70;99.90;;;;;;5077511;28;20468;-78
2023/03/23 09:42:17;;;;;;;10.52;3.67;;;11.70;99.90;;;;;;5089516;28;20080;-77
2023/03/23 09:44:58;;;;;;;8.50;3.40;;;11.80;99.90;;;;;;5081690;28;20044;-77
2023/03/23 09:47:31;;;;;;;6.10;3.00;;;11.80;99.90;;;;;;5086587;28;20546;-78
2023/03/23 09:50:02;;;;;;;6.55;3.40;;;11.90;99.90;;;;;;5090608;28;20449;-80
2023/03/23 09:52:55;;;;;;;7.38;3.00;;;12.00;99.90;;;;;;5091350;28;20043;-77
2023/03/23 09:55:22;;;;;;;7.57;3.47;;;12.30;99.90;;;;;;5087056;28;20044;-78
2023/03/23 09:57:51;;;;;;;8.02;3.03;;;12.40;99.90;;;;;;5082492;28;20055;-78
2023/03/23 10:00:31;;;;;;;7.38;3.08;;;12.40;99.90;;;;;;5084666;28;20051;-78
2023/03/23 10:03:18;;;;;;;5.40;2.70;;;12.60;99.90;;;;;;5090404;28;20052;-77
2023/03/23 10:05:53;;;;;;;5.10;2.95;;;12.70;99.90;;;;;;5089307;28;20610;-76
2023/03/23 10:08:24;;;;;;;4.85;2.50;;;12.90;99.90;;;;;;5091512;28;20055;-77
2023/03/23 10:11:28;;;;;;;4.72;2.50;;;12.70;99.90;;;;;;5090737;28;20185;-76
2023/03/23 10:14:02;;;;;;;6.03;2.50;;;12.70;99.90;;;;;;5000552;28;20054;-79
2023/03/23 10:16:32;;;;;;;6.90;2.28;;;12.90;99.90;;;;;;5073823;28;20075;-81
2023/03/23 10:19:07;;;;;;;8.40;3.38;;;13.00;99.90;;;;;;5079539;28;20043;-76
2023/03/23 10:21:39;;;;;;;8.23;2.47;;;13.00;99.90;;;;;;5084037;28;20052;-74
2023/03/23 10:24:09;;;;;;;5.95;2.47;;;13.00;99.90;;;;;;5085016;28;20040;-83
2023/03/23 10:26:44;;;;;;;3.75;2.10;;;13.20;99.90;;;;;;5084141;28;20043;-76
2023/03/23 10:29:29;;;;;;;6.20;2.53;;;13.40;99.90;;;;;;5085687;28;20055;-75
2023/03/23 10:32:13;;;;;;;4.97;2.03;;;13.30;99.90;;;;;;5088729;28;20048;-78
2023/03/23 10:34:50;;;;;;;5.28;2.42;;;13.10;99.90;;;;;;5090126;28;20040;-79
2023/03/23 10:37:24;;;;;;;6.68;2.15;;;13.00;99.90;;;;;;5089357;28;20076;-80
2023/03/23 10:39:57;;;;;;;6.05;2.08;;;13.30;99.90;;;;;;5089459;28;20048;-79
2023/03/23 10:42:31;;;;;;;5.68;1.88;;;13.70;99.90;;;;;;5090744;28;20185;-77
2023/03/23 10:45:21;;;;;;;4.85;1.80;;;13.70;99.90;;;;;;5088731;28;20032;-78
2023/03/23 10:47:52;;;;;;;3.20;1.80;;;13.80;99.90;;;;;;5088614;28;20044;-78
2023/03/23 10:50:26;;;;;;;6.05;1.92;;;13.90;99.90;;;;;;5090316;28;20047;-80
2023/03/23 10:52:53;;;;;;;4.53;1.80;;;14.00;99.90;;;;;;5089533;28;20098;-76
2023/03/23 10:55:23;;;;;;;4.82;1.95;;;14.00;99.90;;;;;;5090516;28;20048;-77
2023/03/23 10:58:04;;;;;;;3.30;1.50;;;14.00;99.90;;;;;;5090210;28;20826;-76
2023/03/23 11:00:31;;;;;;;3.78;1.65;;;13.60;99.90;;;;;;5091080;28;20051;-78
2023/03/23 11:03:06;;;;;;;3.28;1.50;;;13.50;99.90;;;;;;5092500;28;20048;-76
2023/03/23 11:05:37;;;;;;;4.68;1.50;;;13.60;99.90;;;;;;5094319;28;20043;-77
2023/03/23 11:08:03;;;;;;;3.90;1.70;;;13.80;99.90;;;;;;5093374;28;20123;-77
2023/03/23 11:10:38;;;;;;;4.15;1.40;;;14.10;99.90;;;;;;5094052;28;20052;-78
2023/03/23 11:13:10;;;;;;;6.13;1.83;;;14.40;99.90;;;;;;5091118;28;20056;-76
2023/03/23 11:15:40;;;;;;;2.40;1.40;;;14.50;99.90;;;;;;5093896;28;20040;-79
2023/03/23 11:18:12;;;;;;;5.90;1.67;;;14.40;99.90;;;;;;5094003;28;20057;-80
2023/03/23 11:20:41;;;;;;;5.53;1.60;;;14.30;99.90;;;;;;5093179;28;20654;-78
2023/03/23 11:23:33;;;;;;;4.47;2.33;;;14.20;99.90;;;;;;5093720;28;20519;-77
2023/03/23 11:26:23;;;;;;;5.00;1.65;;;14.30;99.90;;;;;;5094357;28;20043;-78
2023/03/23 11:29:02;;;;;;;4.10;1.38;;;14.20;99.90;;;;;;5094111;28;20494;-79
2023/03/23 11:31:33;;;;;;;3.53;1.52;;;13.90;99.90;;;;;;5094139;28;20048;-76
2023/03/23 11:34:03;;;;;;;4.03;1.40;;;13.80;99.90;;;;;;5077346;28;20123;-78
2023/03/23 11:36:40;;;;;;;5.32;1.63;;;13.80;99.90;;;;;;5091130;28;20047;-79
2023/03/23 11:39:30;;;;;;;3.22;1.35;;;14.10;99.90;;;;;;5090802;28;20127;-78
2023/03/23 11:41:59;;;;;;;5.13;1.60;;;14.40;99.90;;;;;;5092923;28;20515;-80
2023/03/23 11:44:33;;;;;;;5.35;1.73;;;14.30;99.90;;;;;;5076620;28;20056;-77
2023/03/23 11:47:32;;;;;;;4.35;1.30;;;14.00;99.90;;;;;;5088167;28;20048;-77
2023/03/23 11:49:58;;;;;;;4.80;1.65;;;13.70;99.90;;;;;;5094514;28;20685;-77
2023/03/23 11:52:50;;;;;;;4.88;1.70;;;13.50;99.90;;;;;;5081284;28;20048;-76
2023/03/23 11:55:19;;;;;;;5.82;1.67;;;13.70;99.90;;;;;;5074159;28;20123;-77
2023/03/23 11:57:44;;;;;;;4.47;1.65;;;14.00;99.90;;;;;;5073664;28;20044;-79
2023/03/23 12:00:18;;;;;;;3.80;1.50;;;14.10;99.90;;;;;;5073537;28;20048;-78
2023/03/23 12:03:08;;;;;;;3.83;1.50;;;14.40;99.90;;;;;;5056022;28;20141;-79
2023/03/23 12:05:55;;;;;;;6.50;2.03;;;14.80;99.90;;;;;;5074053;28;20136;-77
2023/03/23 12:08:40;;;;;;;4.93;1.48;;;15.20;99.90;;;;;;5073965;28;20103;-78
2023/03/23 12:11:16;;;;;;;4.85;1.60;;;15.40;99.90;;;;;;5075137;28;20064;-78
2023/03/23 12:13:55;;;;;;;5.35;2.42;;;15.40;99.90;;;;;;5075516;28;20144;-84
2023/03/23 12:16:34;;;;;;;6.03;1.75;;;15.30;99.90;;;;;;5059127;28;20063;-79
2023/03/23 12:19:13;;;;;;;4.38;1.42;;;15.20;99.90;;;;;;5094225;28;20102;-78
2023/03/23 12:22:03;;;;;;;4.10;1.85;;;15.20;99.90;;;;;;5094472;28;20044;-77
2023/03/23 12:24:44;;;;;;;4.85;1.77;;;15.30;99.90;;;;;;5093437;28;20497;-79
2023/03/23 12:27:13;;;;;;;5.70;1.70;;;15.20;99.90;;;;;;5075681;28;20500;-77
2023/03/23 12:30:21;;;;;;;4.57;1.60;;;15.20;99.90;;;;;;5093654;28;20443;-78
2023/03/23 12:32:53;;;;;;;;;;;15.20;99.90;;;;;;5073788;28;20508;-78
2023/03/23 12:35:43;;;;;;;5.15;1.70;;;15.30;99.90;;;;;;5073396;28;19924;-77
2023/03/23 12:38:12;;;;;;;4.40;1.60;;;15.60;99.90;;;;;;5082024;28;20048;-77
2023/03/23 12:40:46;;;;;;;6.68;1.58;;;15.50;99.90;;;;;;5075587;28;20052;-77
2023/03/23 12:43:21;;;;;;;4.47;1.50;;;15.30;99.90;;;;;;5093369;28;20506;-79
2023/03/23 12:46:11;;;;;;;4.57;1.42;;;15.20;99.90;;;;;;5093488;28;20051;-77
2023/03/23 12:48:48;;;;;;;5.00;1.25;;;14.90;99.90;;;;;;5093540;28;20047;-78
2023/03/23 12:51:32;;;;;;;5.32;1.55;;;14.90;99.90;;;;;;5093302;28;20097;-78
2023/03/23 12:54:21;;;;;;;4.82;1.52;;;14.90;99.90;;;;;;5093284;28;20382;-79
2023/03/23 12:57:01;;;;;;;5.20;1.65;;;14.60;99.90;;;;;;5077358;28;20417;-78
2023/03/23 12:59:43;;;;;;;6.70;1.55;;;14.50;99.90;;;;;;5093281;28;20047;-77
2023/03/23 13:02:25;;;;;;;4.22;1.40;;;14.50;99.90;;;;;;5092822;28;20087;-79
2023/03/23 13:05:02;;;;;;;4.35;1.58;;;14.30;99.90;;;;;;5093056;28;20044;-78
2023/03/23 13:07:33;;;;;;;4.75;1.55;;;14.30;99.90;;;;;;5092474;28;20501;-78